createdAt,value
2019-03-08T00:00:03.810Z,828.62
2019-03-08T00:01:03.848Z,828.62
2019-03-08T00:02:03.837Z,828.63
2019-03-08T00:03:03.799Z,828.58
2019-03-08T00:04:03.777Z,828.60
2019-03-08T00:05:03.761Z,828.64
2019-03-08T00:06:03.766Z,828.58
2019-03-08T00:07:03.799Z,828.64
2019-03-08T00:08:03.733Z,828.65
2019-03-08T00:09:03.730Z,828.62
2019-03-08T00:10:03.711Z,828.68
2019-03-08T00:11:03.714Z,828.66
2019-03-08T00:12:03.710Z,828.60
2019-03-08T00:13:05.341Z,828.63
2019-03-08T00:14:03.675Z,828.68
2019-03-08T00:15:03.679Z,828.64
2019-03-08T00:16:03.679Z,828.60
2019-03-08T00:17:03.650Z,828.64
2019-03-08T00:18:03.629Z,828.64
2019-03-08T00:19:03.686Z,828.67
2019-03-08T00:20:03.602Z,828.68
2019-03-08T00:21:03.567Z,828.71
2019-03-08T00:22:03.573Z,828.64
2019-03-08T00:23:03.563Z,828.67
2019-03-08T00:24:03.601Z,828.73
2019-03-08T00:25:03.568Z,828.68
2019-03-08T00:26:04.375Z,828.75
2019-03-08T00:27:03.529Z,828.69
2019-03-08T00:28:03.491Z,828.70
2019-03-08T00:29:03.495Z,828.67
2019-03-08T00:30:03.519Z,828.74
2019-03-08T00:31:03.557Z,828.71
2019-03-08T00:32:03.476Z,828.72
2019-03-08T00:33:03.477Z,828.71
2019-03-08T00:34:03.451Z,828.73
2019-03-08T00:35:03.442Z,828.80
2019-03-08T00:36:03.442Z,828.74
2019-03-08T00:37:03.454Z,828.80
2019-03-08T00:38:03.393Z,828.83
2019-03-08T00:39:03.418Z,828.82
2019-03-08T00:40:03.405Z,828.82
2019-03-08T00:41:03.372Z,828.90
2019-03-08T00:42:03.370Z,828.89
2019-03-08T00:43:03.391Z,828.87
2019-03-08T00:44:03.413Z,828.89
2019-03-08T00:45:03.330Z,828.82
2019-03-08T00:46:03.316Z,828.88
2019-03-08T00:47:03.332Z,828.89
2019-03-08T00:48:03.317Z,828.82
2019-03-08T00:49:03.349Z,828.83
2019-03-08T00:50:03.282Z,828.89
2019-03-08T00:51:03.278Z,828.79
2019-03-08T00:52:03.287Z,828.72
2019-03-08T00:53:03.273Z,828.81
2019-03-08T00:54:03.251Z,828.75
2019-03-08T00:55:03.299Z,828.78
2019-03-08T00:56:03.210Z,828.72
2019-03-08T00:57:03.213Z,828.84
2019-03-08T00:58:03.213Z,828.78
2019-03-08T00:59:03.197Z,828.78
2019-03-08T01:00:03.174Z,828.76
2019-03-08T01:01:03.208Z,828.75
2019-03-08T01:02:03.149Z,828.71
2019-03-08T01:03:03.127Z,828.77
2019-03-08T01:04:03.127Z,828.73
2019-03-08T01:05:03.121Z,828.82
2019-03-08T01:06:03.097Z,828.77
2019-03-08T01:07:03.135Z,828.76
2019-03-08T01:08:03.090Z,828.70
2019-03-08T01:09:03.071Z,828.76
2019-03-08T01:10:03.072Z,828.80
2019-03-08T01:11:03.052Z,828.78
2019-03-08T01:12:03.076Z,828.75
2019-03-08T01:13:03.118Z,828.75
2019-03-08T01:14:03.003Z,828.81
2019-03-08T01:15:03.017Z,828.81
2019-03-08T01:16:02.970Z,828.81
2019-03-08T01:17:02.998Z,828.80
2019-03-08T01:18:02.991Z,828.83
2019-03-08T01:19:03.007Z,828.80
2019-03-08T01:20:02.989Z,828.88
2019-03-08T01:21:02.991Z,828.83
2019-03-08T01:22:02.924Z,828.80
2019-03-08T01:23:02.913Z,828.88
2019-03-08T01:24:02.888Z,828.84
2019-03-08T01:25:02.921Z,828.92
2019-03-08T01:26:02.898Z,828.86
2019-03-08T01:27:02.886Z,828.87
2019-03-08T01:28:02.926Z,828.88
2019-03-08T01:29:02.850Z,828.88
2019-03-08T01:30:02.836Z,828.89
2019-03-08T01:31:02.892Z,828.88
2019-03-08T01:32:02.834Z,828.82
2019-03-08T01:33:02.813Z,828.87
2019-03-08T01:34:02.811Z,828.86
2019-03-08T01:35:02.772Z,828.85
2019-03-08T01:36:02.768Z,828.91
2019-03-08T01:37:02.837Z,828.86
2019-03-08T01:38:02.761Z,828.90
2019-03-08T01:39:02.757Z,828.92
2019-03-08T01:40:02.730Z,828.87
2019-03-08T01:41:02.750Z,828.93
2019-03-08T01:42:02.687Z,828.90
2019-03-08T01:43:02.771Z,828.83
2019-03-08T01:44:02.693Z,828.84
2019-03-08T01:45:03.805Z,828.79
2019-03-08T01:46:02.668Z,828.81
2019-03-08T01:47:02.655Z,828.82
2019-03-08T01:48:02.642Z,828.84
2019-03-08T01:49:02.689Z,828.81
2019-03-08T01:50:02.636Z,828.80
2019-03-08T01:51:02.610Z,828.77
2019-03-08T01:52:02.589Z,828.79
2019-03-08T01:53:02.613Z,828.77
2019-03-08T01:54:02.613Z,828.79
2019-03-08T01:55:02.648Z,828.72
2019-03-08T01:56:02.549Z,828.73
2019-03-08T01:57:02.550Z,828.74
2019-03-08T01:58:02.558Z,828.79
2019-03-08T01:59:02.557Z,828.73
2019-03-08T02:00:02.524Z,828.77
2019-03-08T02:01:02.592Z,828.74
2019-03-08T02:02:02.522Z,828.78
2019-03-08T02:03:02.486Z,828.75
2019-03-08T02:04:02.471Z,828.72
2019-03-08T02:05:02.477Z,828.74
2019-03-08T02:06:02.478Z,828.67
2019-03-08T02:07:02.489Z,828.65
2019-03-08T02:08:02.408Z,828.65
2019-03-08T02:09:02.411Z,828.69
2019-03-08T02:10:02.418Z,828.67
2019-03-08T02:11:02.410Z,828.65
2019-03-08T02:12:02.375Z,828.66
2019-03-08T02:13:02.438Z,828.65
2019-03-08T02:14:02.391Z,828.67
2019-03-08T02:15:02.398Z,828.59
2019-03-08T02:16:02.337Z,828.67
2019-03-08T02:17:02.333Z,828.69
2019-03-08T02:18:02.331Z,828.65
2019-03-08T02:19:02.358Z,828.66
2019-03-08T02:20:02.292Z,828.65
2019-03-08T02:21:06.676Z,828.63
2019-03-08T02:22:03.287Z,828.65
2019-03-08T02:23:02.269Z,828.58
2019-03-08T02:24:02.250Z,828.61
2019-03-08T02:25:02.325Z,828.58
2019-03-08T02:26:02.280Z,828.58
2019-03-08T02:27:02.215Z,828.55
2019-03-08T02:28:02.207Z,828.49
2019-03-08T02:29:02.231Z,828.57
2019-03-08T02:30:02.233Z,828.51
2019-03-08T02:31:02.249Z,828.54
2019-03-08T02:32:02.176Z,828.52
2019-03-08T02:33:02.203Z,828.52
2019-03-08T02:34:02.165Z,828.55
2019-03-08T02:35:02.157Z,828.49
2019-03-08T02:36:02.113Z,828.61
2019-03-08T02:37:02.132Z,828.55
2019-03-08T02:38:02.075Z,828.61
2019-03-08T02:39:02.091Z,828.60
2019-03-08T02:40:02.170Z,828.62
2019-03-08T02:41:02.077Z,828.70
2019-03-08T02:42:02.051Z,828.63
2019-03-08T02:43:02.131Z,828.69
2019-03-08T02:44:02.031Z,828.65
2019-03-08T02:45:02.032Z,828.72
2019-03-08T02:46:02.013Z,828.73
2019-03-08T02:47:02.001Z,828.76
2019-03-08T02:48:01.996Z,828.78
2019-03-08T02:49:02.053Z,828.75
2019-03-08T02:50:01.975Z,828.75
2019-03-08T02:51:01.970Z,828.74
2019-03-08T02:52:01.950Z,828.78
2019-03-08T02:53:01.933Z,828.78
2019-03-08T02:54:01.953Z,828.80
2019-03-08T02:55:01.933Z,828.77
2019-03-08T02:56:01.918Z,828.75
2019-03-08T02:57:01.891Z,828.78
2019-03-08T02:58:01.912Z,828.77
2019-03-08T02:59:01.848Z,828.79
2019-03-08T03:00:01.879Z,828.80
2019-03-08T03:01:01.900Z,828.82
2019-03-08T03:02:01.833Z,828.87
2019-03-08T03:03:01.812Z,828.82
2019-03-08T03:04:01.814Z,828.90
2019-03-08T03:05:01.805Z,828.78
2019-03-08T03:06:01.816Z,828.79
2019-03-08T03:07:01.852Z,828.77
2019-03-08T03:08:01.775Z,828.80
2019-03-08T03:09:01.791Z,828.80
2019-03-08T03:10:01.798Z,828.78
2019-03-08T03:11:01.750Z,828.79
2019-03-08T03:12:01.751Z,828.81
2019-03-08T03:13:01.768Z,828.77
2019-03-08T03:14:01.715Z,828.84
2019-03-08T03:15:01.720Z,828.81
2019-03-08T03:16:01.689Z,828.82
2019-03-08T03:17:01.729Z,828.85
2019-03-08T03:18:01.656Z,828.83
2019-03-08T03:19:01.708Z,828.80
2019-03-08T03:20:01.654Z,828.83
2019-03-08T03:21:01.651Z,828.83
2019-03-08T03:22:01.645Z,828.86
2019-03-08T03:23:01.614Z,828.85
2019-03-08T03:24:01.600Z,828.82
2019-03-08T03:25:01.669Z,828.77
2019-03-08T03:26:01.561Z,828.83
2019-03-08T03:27:01.562Z,828.81
2019-03-08T03:28:01.571Z,828.83
2019-03-08T03:29:01.550Z,828.82
2019-03-08T03:30:01.531Z,828.81
2019-03-08T03:31:01.603Z,828.86
2019-03-08T03:32:01.489Z,828.88
2019-03-08T03:33:01.515Z,828.90
2019-03-08T03:34:01.473Z,828.94
2019-03-08T03:35:01.490Z,828.93
2019-03-08T03:36:01.454Z,828.92
2019-03-08T03:37:01.510Z,829.00
2019-03-08T03:38:01.459Z,829.02
2019-03-08T03:39:01.406Z,828.94
2019-03-08T03:40:01.416Z,829.00
2019-03-08T03:41:01.411Z,829.04
2019-03-08T03:42:01.432Z,829.02
2019-03-08T03:43:01.434Z,829.05
2019-03-08T03:44:01.376Z,829.06
2019-03-08T03:45:01.401Z,829.07
2019-03-08T03:46:01.351Z,829.07
2019-03-08T03:47:01.338Z,829.11
2019-03-08T03:48:01.334Z,829.10
2019-03-08T03:49:01.368Z,829.10
2019-03-08T03:50:01.326Z,829.09
2019-03-08T03:51:01.298Z,829.07
2019-03-08T03:52:01.286Z,829.06
2019-03-08T03:53:01.287Z,829.15
2019-03-08T03:54:01.271Z,829.10
2019-03-08T03:55:01.336Z,829.09
2019-03-08T03:56:01.241Z,829.15
2019-03-08T03:57:01.255Z,829.17
2019-03-08T03:58:01.240Z,829.24
2019-03-08T03:59:01.205Z,829.22
2019-03-08T04:00:01.230Z,829.29
2019-03-08T04:01:01.293Z,829.28
2019-03-08T04:02:01.169Z,829.30
2019-03-08T04:03:01.174Z,829.30
2019-03-08T04:04:01.198Z,829.27
2019-03-08T04:05:01.153Z,829.31
2019-03-08T04:06:01.157Z,829.32
2019-03-08T04:07:01.202Z,829.36
2019-03-08T04:08:01.159Z,829.31
2019-03-08T04:09:01.119Z,829.30
2019-03-08T04:10:01.081Z,829.29
2019-03-08T04:11:01.120Z,829.37
2019-03-08T04:12:01.118Z,829.33
2019-03-08T04:13:01.088Z,829.39
2019-03-08T04:14:01.053Z,829.37
2019-03-08T04:15:01.051Z,829.41
2019-03-08T04:16:01.039Z,829.42
2019-03-08T04:17:01.035Z,829.50
2019-03-08T04:18:01.011Z,829.45
2019-03-08T04:19:01.078Z,829.50
2019-03-08T04:20:00.972Z,829.52
2019-03-08T04:21:01.002Z,829.47
2019-03-08T04:22:00.969Z,829.53
2019-03-08T04:23:00.978Z,829.53
2019-03-08T04:24:00.950Z,829.60
2019-03-08T04:25:01.412Z,829.53
2019-03-08T04:26:00.931Z,829.57
2019-03-08T04:27:00.921Z,829.63
2019-03-08T04:28:00.927Z,829.66
2019-03-08T04:29:00.894Z,829.63
2019-03-08T04:30:00.900Z,829.57
2019-03-08T04:31:00.958Z,829.67
2019-03-08T04:32:00.854Z,829.69
2019-03-08T04:33:00.833Z,829.67
2019-03-08T04:34:00.850Z,829.66
2019-03-08T04:35:00.831Z,829.67
2019-03-08T04:36:00.839Z,829.68
2019-03-08T04:37:00.836Z,829.69
2019-03-08T04:38:00.816Z,829.74
2019-03-08T04:39:00.791Z,829.73
2019-03-08T04:40:00.756Z,829.71
2019-03-08T04:41:00.769Z,829.75
2019-03-08T04:42:00.758Z,829.81
2019-03-08T04:43:00.798Z,829.81
2019-03-08T04:44:00.753Z,829.82
2019-03-08T04:45:00.729Z,829.82
2019-03-08T04:46:00.715Z,829.86
2019-03-08T04:47:00.710Z,829.86
2019-03-08T04:48:00.711Z,829.82
2019-03-08T04:49:00.696Z,829.77
2019-03-08T04:50:00.720Z,829.80
2019-03-08T04:51:00.633Z,829.81
2019-03-08T04:52:00.718Z,829.86
2019-03-08T04:53:00.640Z,829.88
2019-03-08T04:54:00.598Z,829.86
2019-03-08T04:55:00.630Z,829.86
2019-03-08T04:56:00.597Z,829.88
2019-03-08T04:57:00.571Z,829.84
2019-03-08T04:58:00.565Z,829.80
2019-03-08T04:59:00.606Z,829.84
2019-03-08T05:00:00.564Z,829.80
2019-03-08T05:01:00.733Z,829.81
2019-03-08T05:02:00.527Z,829.77
2019-03-08T05:03:00.516Z,829.81
2019-03-08T05:04:00.520Z,829.86
2019-03-08T05:05:00.474Z,829.88
2019-03-08T05:06:00.850Z,829.88
2019-03-08T05:07:00.494Z,829.91
2019-03-08T05:08:00.475Z,829.87
2019-03-08T05:09:00.454Z,829.91
2019-03-08T05:10:00.473Z,829.91
2019-03-08T05:11:00.446Z,829.90
2019-03-08T05:12:00.436Z,829.94
2019-03-08T05:13:00.449Z,829.99
2019-03-08T05:14:00.376Z,829.93
2019-03-08T05:15:00.366Z,829.95
2019-03-08T05:16:00.368Z,829.93
2019-03-08T05:17:00.357Z,829.97
2019-03-08T05:18:00.366Z,829.94
2019-03-08T05:19:00.401Z,829.95
2019-03-08T05:20:00.335Z,829.99
2019-03-08T05:21:00.352Z,830.02
2019-03-08T05:22:00.334Z,829.97
2019-03-08T05:23:00.318Z,829.97
2019-03-08T05:24:00.282Z,830.02
2019-03-08T05:25:00.326Z,829.96
2019-03-08T05:26:00.270Z,830.02
2019-03-08T05:27:00.270Z,830.05
2019-03-08T05:28:00.279Z,830.08
2019-03-08T05:29:00.246Z,830.12
2019-03-08T05:30:00.340Z,830.11
2019-03-08T05:31:00.270Z,830.14
2019-03-08T05:32:00.309Z,830.12
2019-03-08T05:33:00.205Z,830.14
2019-03-08T05:34:00.170Z,830.14
2019-03-08T05:35:00.291Z,830.16
2019-03-08T05:36:00.166Z,830.18
2019-03-08T05:37:00.205Z,830.14
2019-03-08T05:38:00.138Z,830.19
2019-03-08T05:39:00.158Z,830.23
2019-03-08T05:40:00.241Z,830.17
2019-03-08T05:41:00.086Z,830.19
2019-03-08T05:42:00.097Z,830.17
2019-03-08T05:43:00.094Z,830.21
2019-03-08T05:44:00.077Z,830.24
2019-03-08T05:45:00.055Z,830.26
2019-03-08T05:46:00.044Z,830.19
2019-03-08T05:47:00.039Z,830.23
2019-03-08T05:48:00.031Z,830.23
2019-03-08T05:49:00.070Z,830.23
2019-03-08T05:50:00.005Z,830.17
2019-03-08T05:50:59.995Z,830.23
2019-03-08T05:52:00.083Z,830.24
2019-03-08T05:52:59.975Z,830.18
2019-03-08T05:53:59.989Z,830.20
2019-03-08T05:55:00.045Z,830.19
2019-03-08T05:55:59.933Z,830.20
2019-03-08T05:56:59.960Z,830.25
2019-03-08T05:57:59.932Z,830.19
2019-03-08T05:58:59.911Z,830.26
2019-03-08T05:59:59.901Z,830.26
2019-03-08T06:00:59.929Z,830.30
2019-03-08T06:01:59.886Z,830.25
2019-03-08T06:02:59.878Z,830.27
2019-03-08T06:03:59.869Z,830.33
2019-03-08T06:04:59.816Z,830.29
2019-03-08T06:05:59.818Z,830.30
2019-03-08T06:06:59.883Z,830.32
2019-03-08T06:07:59.844Z,830.26
2019-03-08T06:08:59.792Z,830.28
2019-03-08T06:09:59.799Z,830.30
2019-03-08T06:10:59.818Z,830.29
2019-03-08T06:11:59.765Z,830.30
2019-03-08T06:12:59.834Z,830.30
2019-03-08T06:13:59.798Z,830.30
2019-03-08T06:14:59.790Z,830.28
2019-03-08T06:15:59.724Z,830.29
2019-03-08T06:16:59.718Z,830.30
2019-03-08T06:17:59.762Z,830.31
2019-03-08T06:18:59.730Z,830.34
2019-03-08T06:19:59.678Z,830.29
2019-03-08T06:20:59.687Z,830.24
2019-03-08T06:21:59.657Z,830.28
2019-03-08T06:22:59.633Z,830.33
2019-03-08T06:23:59.610Z,830.35
2019-03-08T06:24:59.758Z,830.33
2019-03-08T06:25:59.640Z,830.39
2019-03-08T06:26:59.609Z,830.38
2019-03-08T06:27:59.587Z,830.38
2019-03-08T06:28:59.597Z,830.39
2019-03-08T06:29:59.599Z,830.27
2019-03-08T06:30:59.572Z,830.33
2019-03-08T06:31:59.710Z,830.33
2019-03-08T06:32:59.558Z,830.28
2019-03-08T06:33:59.538Z,830.37
2019-03-08T06:34:59.549Z,830.37
2019-03-08T06:35:59.492Z,830.38
2019-03-08T06:36:59.558Z,830.41
2019-03-08T06:37:59.487Z,830.42
2019-03-08T06:38:59.470Z,830.39
2019-03-08T06:39:59.550Z,830.38
2019-03-08T06:40:59.470Z,830.43
2019-03-08T06:41:59.438Z,830.39
2019-03-08T06:42:59.450Z,830.42
2019-03-08T06:43:59.413Z,830.48
2019-03-08T06:44:59.415Z,830.49
2019-03-08T06:45:59.405Z,830.47
2019-03-08T06:46:59.395Z,830.46
2019-03-08T06:47:59.368Z,830.45
2019-03-08T06:48:59.391Z,830.47
2019-03-08T06:49:59.352Z,830.49
2019-03-08T06:50:59.356Z,830.51
2019-03-08T06:52:00.898Z,830.51
2019-03-08T06:52:59.321Z,830.56
2019-03-08T06:53:59.320Z,830.56
2019-03-08T06:54:59.348Z,830.56
2019-03-08T06:55:59.310Z,830.59
2019-03-08T06:56:59.271Z,830.58
2019-03-08T06:57:59.277Z,830.60
2019-03-08T06:58:59.272Z,830.64
2019-03-08T06:59:59.249Z,830.57
2019-03-08T07:00:59.297Z,830.61
2019-03-08T07:01:59.230Z,830.58
2019-03-08T07:02:59.204Z,830.60
2019-03-08T07:03:59.236Z,830.61
2019-03-08T07:04:59.175Z,830.69
2019-03-08T07:05:59.162Z,830.72
2019-03-08T07:06:59.239Z,830.75
2019-03-08T07:07:59.159Z,830.76
2019-03-08T07:08:59.151Z,830.73
2019-03-08T07:09:59.158Z,830.82
2019-03-08T07:10:59.129Z,830.80
2019-03-08T07:11:59.113Z,830.85
2019-03-08T07:13:03.363Z,830.85
2019-03-08T07:13:59.081Z,830.86
2019-03-08T07:14:59.084Z,830.92
2019-03-08T07:15:59.079Z,830.93
2019-03-08T07:16:59.041Z,830.92
2019-03-08T07:17:59.034Z,830.95
2019-03-08T07:18:59.094Z,830.91
2019-03-08T07:19:59.014Z,830.96
2019-03-08T07:20:59.012Z,830.97
2019-03-08T07:21:59.003Z,830.97
2019-03-08T07:22:59.001Z,831.05
2019-03-08T07:23:58.991Z,831.02
2019-03-08T07:24:58.976Z,831.06
2019-03-08T07:25:58.950Z,831.05
2019-03-08T07:26:58.930Z,831.06
2019-03-08T07:27:58.936Z,831.14
2019-03-08T07:28:58.933Z,831.14
2019-03-08T07:29:58.910Z,831.17
2019-03-08T07:30:58.935Z,831.10
2019-03-08T07:31:58.892Z,831.12
2019-03-08T07:32:58.875Z,831.16
2019-03-08T07:33:58.871Z,831.21
2019-03-08T07:34:58.870Z,831.21
2019-03-08T07:35:58.833Z,831.30
2019-03-08T07:36:58.883Z,831.28
2019-03-08T07:37:58.811Z,831.27
2019-03-08T07:38:58.802Z,831.32
2019-03-08T07:39:58.836Z,831.23
2019-03-08T07:40:58.801Z,831.24
2019-03-08T07:41:58.770Z,831.28
2019-03-08T07:42:58.814Z,831.28
2019-03-08T07:43:58.814Z,831.34
2019-03-08T07:44:58.757Z,831.33
2019-03-08T07:45:58.737Z,831.34
2019-03-08T07:46:58.715Z,831.34
2019-03-08T07:47:58.716Z,831.41
2019-03-08T07:48:58.775Z,831.42
2019-03-08T07:49:58.711Z,831.43
2019-03-08T07:50:58.774Z,831.44
2019-03-08T07:51:58.656Z,831.42
2019-03-08T07:52:58.673Z,831.47
2019-03-08T07:53:58.678Z,831.48
2019-03-08T07:54:58.708Z,831.45
2019-03-08T07:55:58.651Z,831.47
2019-03-08T07:56:58.615Z,831.49
2019-03-08T07:57:58.603Z,831.53
2019-03-08T07:58:58.590Z,831.55
2019-03-08T07:59:58.600Z,831.53
2019-03-08T08:00:58.627Z,831.51
2019-03-08T08:01:58.563Z,831.57
2019-03-08T08:03:03.571Z,831.62
2019-03-08T08:03:59.533Z,831.62
2019-03-08T08:04:58.538Z,831.64
2019-03-08T08:05:58.646Z,831.65
2019-03-08T08:06:58.538Z,831.65
2019-03-08T08:07:58.475Z,831.70
2019-03-08T08:08:58.513Z,831.75
2019-03-08T08:09:58.474Z,831.75
2019-03-08T08:10:58.480Z,831.74
2019-03-08T08:11:58.448Z,831.75
2019-03-08T08:12:58.509Z,831.71
2019-03-08T08:13:58.440Z,831.67
2019-03-08T08:14:58.429Z,831.69
2019-03-08T08:15:58.415Z,831.74
2019-03-08T08:16:58.440Z,831.78
2019-03-08T08:17:58.371Z,831.75
2019-03-08T08:18:58.468Z,831.71
2019-03-08T08:19:58.363Z,831.71
2019-03-08T08:20:58.353Z,831.78
2019-03-08T08:21:58.332Z,831.75
2019-03-08T08:22:58.337Z,831.75
2019-03-08T08:23:58.337Z,831.81
2019-03-08T08:24:58.334Z,831.85
2019-03-08T08:25:58.319Z,831.85
2019-03-08T08:26:58.316Z,831.84
2019-03-08T08:27:58.277Z,831.83
2019-03-08T08:28:58.256Z,831.84
2019-03-08T08:29:58.253Z,831.86
2019-03-08T08:30:58.327Z,831.85
2019-03-08T08:31:58.222Z,831.92
2019-03-08T08:32:58.209Z,831.89
2019-03-08T08:33:58.211Z,831.88
2019-03-08T08:34:58.214Z,831.87
2019-03-08T08:35:58.194Z,831.85
2019-03-08T08:36:58.244Z,831.86
2019-03-08T08:37:58.170Z,831.81
2019-03-08T08:38:58.137Z,831.88
2019-03-08T08:39:58.166Z,831.92
2019-03-08T08:40:58.130Z,831.92
2019-03-08T08:41:58.140Z,831.84
2019-03-08T08:42:58.196Z,831.92
2019-03-08T08:43:58.090Z,831.92
2019-03-08T08:44:58.094Z,831.87
2019-03-08T08:45:58.094Z,831.94
2019-03-08T08:46:58.080Z,831.94
2019-03-08T08:47:58.078Z,831.95
2019-03-08T08:48:58.089Z,831.99
2019-03-08T08:49:58.042Z,832.02
2019-03-08T08:50:58.041Z,832.08
2019-03-08T08:51:58.013Z,832.06
2019-03-08T08:52:58.003Z,832.08
2019-03-08T08:53:58.013Z,832.07
2019-03-08T08:54:58.014Z,832.09
2019-03-08T08:55:57.999Z,832.11
2019-03-08T08:56:57.965Z,832.09
2019-03-08T08:57:57.958Z,832.20
2019-03-08T08:58:57.953Z,832.24
2019-03-08T08:59:57.960Z,832.21
2019-03-08T09:00:57.972Z,832.15
2019-03-08T09:01:57.890Z,832.20
2019-03-08T09:02:57.891Z,832.15
2019-03-08T09:03:57.892Z,832.08
2019-03-08T09:04:57.876Z,832.18
2019-03-08T09:05:57.852Z,832.14
2019-03-08T09:06:57.895Z,832.17
2019-03-08T09:07:57.854Z,832.22
2019-03-08T09:08:57.816Z,832.21
2019-03-08T09:09:57.807Z,832.19
2019-03-08T09:10:57.816Z,832.20
2019-03-08T09:11:57.803Z,832.20
2019-03-08T09:12:57.832Z,832.25
2019-03-08T09:13:57.778Z,832.19
2019-03-08T09:14:57.762Z,832.21
2019-03-08T09:15:57.764Z,832.18
2019-03-08T09:16:57.746Z,832.14
2019-03-08T09:17:57.750Z,832.14
2019-03-08T09:18:57.752Z,832.10
2019-03-08T09:19:59.341Z,832.08
2019-03-08T09:20:57.706Z,832.16
2019-03-08T09:21:57.699Z,832.09
2019-03-08T09:22:57.695Z,832.11
2019-03-08T09:23:57.719Z,832.06
2019-03-08T09:24:57.736Z,832.03
2019-03-08T09:25:57.643Z,832.04
2019-03-08T09:26:57.634Z,832.17
2019-03-08T09:27:57.613Z,832.09
2019-03-08T09:28:57.613Z,832.01
2019-03-08T09:29:57.591Z,832.05
2019-03-08T09:30:57.711Z,832.01
2019-03-08T09:31:57.599Z,832.01
2019-03-08T09:32:59.536Z,832.05
2019-03-08T09:33:57.600Z,832.14
2019-03-08T09:34:57.552Z,832.23
2019-03-08T09:35:57.531Z,832.16
2019-03-08T09:36:57.600Z,832.23
2019-03-08T09:37:57.525Z,832.30
2019-03-08T09:38:57.515Z,832.26
2019-03-08T09:39:57.512Z,832.28
2019-03-08T09:40:57.482Z,832.32
2019-03-08T09:41:57.452Z,832.32
2019-03-08T09:42:57.508Z,832.32
2019-03-08T09:43:57.447Z,832.36
2019-03-08T09:44:57.452Z,832.42
2019-03-08T09:45:57.430Z,832.47
2019-03-08T09:46:57.430Z,832.48
2019-03-08T09:47:57.394Z,832.48
2019-03-08T09:48:58.863Z,832.41
2019-03-08T09:49:57.390Z,832.47
2019-03-08T09:50:57.361Z,832.46
2019-03-08T09:51:57.387Z,832.47
2019-03-08T09:52:57.351Z,832.46
2019-03-08T09:53:57.331Z,832.56
2019-03-08T09:54:57.374Z,832.52
2019-03-08T09:55:57.324Z,832.59
2019-03-08T09:56:57.308Z,832.55
2019-03-08T09:57:57.331Z,832.57
2019-03-08T09:58:57.307Z,832.50
2019-03-08T09:59:57.279Z,832.56
2019-03-08T10:00:57.321Z,832.61
2019-03-08T10:01:57.256Z,832.63
2019-03-08T10:02:57.238Z,832.67
2019-03-08T10:03:57.232Z,832.68
2019-03-08T10:04:57.418Z,832.70
2019-03-08T10:05:57.282Z,832.71
2019-03-08T10:06:57.342Z,832.74
2019-03-08T10:07:57.294Z,832.71
2019-03-08T10:08:57.252Z,832.65
2019-03-08T10:09:57.255Z,832.70
2019-03-08T10:10:57.226Z,832.75
2019-03-08T10:11:57.194Z,832.74
2019-03-08T10:12:57.261Z,832.76
2019-03-08T10:13:57.244Z,832.76
2019-03-08T10:14:57.334Z,832.75
2019-03-08T10:15:57.232Z,832.83
2019-03-08T10:16:57.533Z,832.94
2019-03-08T10:17:57.202Z,832.90
2019-03-08T10:18:57.215Z,832.80
2019-03-08T10:19:57.144Z,832.87
2019-03-08T10:20:57.094Z,832.85
2019-03-08T10:21:57.126Z,832.89
2019-03-08T10:22:57.084Z,832.89
2019-03-08T10:23:57.063Z,832.90
2019-03-08T10:24:57.133Z,832.91
2019-03-08T10:25:57.094Z,832.89
2019-03-08T10:26:57.032Z,832.94
2019-03-08T10:27:57.042Z,832.95
2019-03-08T10:28:57.054Z,832.98
2019-03-08T10:29:57.034Z,832.90
2019-03-08T10:30:57.114Z,832.90
2019-03-08T10:31:57.071Z,832.93
2019-03-08T10:32:56.965Z,833.00
2019-03-08T10:33:57.032Z,832.96
2019-03-08T10:34:56.987Z,832.93
2019-03-08T10:35:56.942Z,832.94
2019-03-08T10:36:57.074Z,833.06
2019-03-08T10:37:56.985Z,833.01
2019-03-08T10:38:56.934Z,833.03
2019-03-08T10:39:56.933Z,833.03
2019-03-08T10:40:56.894Z,833.01
2019-03-08T10:41:56.866Z,833.03
2019-03-08T10:42:58.816Z,832.93
2019-03-08T10:43:56.975Z,832.93
2019-03-08T10:44:56.883Z,833.01
2019-03-08T10:45:56.944Z,833.00
2019-03-08T10:46:56.871Z,832.96
2019-03-08T10:47:56.821Z,833.00
2019-03-08T10:48:56.917Z,832.98
2019-03-08T10:49:56.843Z,833.06
2019-03-08T10:50:56.763Z,832.93
2019-03-08T10:51:56.882Z,832.98
2019-03-08T10:52:56.884Z,832.99
2019-03-08T10:54:00.548Z,832.97
2019-03-08T10:54:58.481Z,833.04
2019-03-08T10:55:56.742Z,833.09
2019-03-08T10:56:56.758Z,833.09
2019-03-08T10:57:56.696Z,833.13
2019-03-08T10:58:56.721Z,833.18
2019-03-08T10:59:56.671Z,833.12
2019-03-08T11:01:03.825Z,833.20
2019-03-08T11:01:57.666Z,833.17
2019-03-08T11:02:56.631Z,833.12
2019-03-08T11:03:56.702Z,833.11
2019-03-08T11:04:56.622Z,833.06
2019-03-08T11:05:56.612Z,833.05
2019-03-08T11:06:56.671Z,833.11
2019-03-08T11:07:56.701Z,833.15
2019-03-08T11:08:57.480Z,833.10
2019-03-08T11:09:56.686Z,833.08
2019-03-08T11:10:56.585Z,833.17
2019-03-08T11:11:56.543Z,833.08
2019-03-08T11:12:56.614Z,833.13
2019-03-08T11:13:56.564Z,833.10
2019-03-08T11:14:56.631Z,833.11
2019-03-08T11:15:56.581Z,833.10
2019-03-08T11:16:56.513Z,833.17
2019-03-08T11:17:56.592Z,833.18
2019-03-08T11:18:56.702Z,833.16
2019-03-08T11:19:56.453Z,833.08
2019-03-08T11:20:56.444Z,833.06
2019-03-08T11:21:56.474Z,833.10
2019-03-08T11:22:56.413Z,833.09
2019-03-08T11:23:56.410Z,833.14
2019-03-08T11:24:56.542Z,833.11
2019-03-08T11:25:56.382Z,833.16
2019-03-08T11:27:04.789Z,833.17
2019-03-08T11:27:57.400Z,833.15
2019-03-08T11:28:56.392Z,833.15
2019-03-08T11:29:56.382Z,833.09
2019-03-08T11:30:56.447Z,833.10
2019-03-08T11:31:56.383Z,833.04
2019-03-08T11:32:56.314Z,833.12
2019-03-08T11:33:56.349Z,833.08
2019-03-08T11:34:56.352Z,833.11
2019-03-08T11:35:56.304Z,833.04
2019-03-08T11:36:56.373Z,833.08
2019-03-08T11:37:56.273Z,833.10
2019-03-08T11:38:56.246Z,833.10
2019-03-08T11:39:56.245Z,833.18
2019-03-08T11:40:56.244Z,833.19
2019-03-08T11:41:56.240Z,833.12
2019-03-08T11:42:56.284Z,833.10
2019-03-08T11:43:56.455Z,833.09
2019-03-08T11:44:56.310Z,833.11
2019-03-08T11:45:56.242Z,833.12
2019-03-08T11:46:56.195Z,833.14
2019-03-08T11:47:56.205Z,833.15
2019-03-08T11:48:56.267Z,833.09
2019-03-08T11:49:56.161Z,833.10
2019-03-08T11:50:56.132Z,833.16
2019-03-08T11:51:56.153Z,833.13
2019-03-08T11:52:56.091Z,833.14
2019-03-08T11:53:56.627Z,833.12
2019-03-08T11:54:56.214Z,833.08
2019-03-08T11:55:56.055Z,833.12
2019-03-08T11:56:56.546Z,833.10
2019-03-08T11:57:56.052Z,833.07
2019-03-08T11:58:56.094Z,833.09
2019-03-08T11:59:56.042Z,833.10
2019-03-08T12:00:56.061Z,833.06
2019-03-08T12:01:56.044Z,833.11
2019-03-08T12:02:56.023Z,833.11
2019-03-08T12:03:56.064Z,833.08
2019-03-08T12:04:56.044Z,833.10
2019-03-08T12:05:55.963Z,833.15
2019-03-08T12:06:56.053Z,833.19
2019-03-08T12:07:55.940Z,833.16
2019-03-08T12:08:55.983Z,833.16
2019-03-08T12:09:55.942Z,833.16
2019-03-08T12:10:55.894Z,833.12
2019-03-08T12:11:55.881Z,833.11
2019-03-08T12:12:56.042Z,833.11
2019-03-08T12:13:55.874Z,833.11
2019-03-08T12:14:55.946Z,833.06
2019-03-08T12:15:55.851Z,833.07
2019-03-08T12:16:55.895Z,833.08
2019-03-08T12:17:55.815Z,833.11
2019-03-08T12:18:55.934Z,833.06
2019-03-08T12:19:55.793Z,833.07
2019-03-08T12:20:55.814Z,833.08
2019-03-08T12:21:55.784Z,833.07
2019-03-08T12:22:55.781Z,833.08
2019-03-08T12:23:55.744Z,833.04
2019-03-08T12:24:55.894Z,833.05
2019-03-08T12:25:55.783Z,833.10
2019-03-08T12:26:55.711Z,833.12
2019-03-08T12:27:55.744Z,833.06